Castleberry, AL (36432)

4:28 PM CDT on July 25, 2014 (GMT -0500)
Middleton (KGZH) Elev 256 ft | 31.42 °N, 87.04 °W | Change Station

Current weather conditions updated 35 minutes ago

Clear
Clear
94 °F
Feels Like 100 °F
N
7
Wind Variable Wind from SW

Tomorrow is forecast to be nearly the same temperature as today.

Today
High -- | Low -- °F
--% Chance of Precip.
Yesterday
High -- | Low -- °F
Precip. -- in
6:00 AM 7:48 PM
Waning Crescent, 1% visible
Pressure 29.95 in
Visibility 10.0 miles
Clouds Clear
Heat Index 100 °F
Dew Point 70 °F
Humidity 46%
Rainfall 0.00 in
Snow Depth Not available.
UV 8 out of 12
Pollen 3.60 out of 12
Air Quality Not available.
Flu Activity Not available.
METAR KGZH 252053Z AUTO 23006KT 10SM CLR 34/21 A2996 RMK AO2 SLP140 T03440211 56017

More Conditions Fewer Conditions

Pressure 29.95 in
Visibility 10.0 miles
Clouds Clear
Heat Index 100 °F
Dew Point 70 °F
Humidity 46%
Rainfall 0.00 in
Snow Depth Not available.
UV 8 out of 12
Pollen 3.60 out of 12
Air Quality Not available.
Flu Activity Not available.
METAR KGZH 252053Z AUTO 23006KT 10SM CLR 34/21 A2996 RMK AO2 SLP140 T03440211 56017

More Conditions Fewer Conditions

10-Day Weather Forecast

Almanac

Astronomy

Jul. 25, 2014 Rise Set
Actual Time 6:00 AM CDT 7:48 PM CDT
Civil Twilight 5:33 AM CDT 8:15 PM CDT
Nautical Twilight 5:01 AM CDT 8:47 PM CDT
Astronomical Twilight 4:26 AM CDT 9:21 PM CDT
Moon 4:57 AM CDT 6:48 PM CDT
Length of Visible Light 14h 41m
Length of Day
13h 48m
Tomorrow will be 1m 16s shorter.
Waning Crescent, 1% of the Moon is Illuminated
Today
Waning Crescent
Jul 26
New
Aug 3
First Quarter
Aug 10
Full
Aug 17
Last Quarter

Today's Extremes

State Highs State Lows

Community

WunderPhotos

Upload Photos

1,737,409 photos uploaded!

Nearby

Snow Depth

Station Depth Elevation
No new snow has been reported.

Earthquake Activity

City Distance Mag. Time & Date
No recent earthquake activity has been reported nearby.
Minimum magnitude displayed is 2.5.

Coastal Water Temperatures

Place Temperature
No Stations Reporting

Nearby Weather Stations

Station Location Temp. Heat Index Dew Point Humidity Wind Precip. Elev Updated Type
HCN BREWTON 3 NNE AL , Brewton, AL 90 °F 87 °F - - North  at  - 0.00 in / hr 170 ft 3:40 PM CDT MADIS
Sellersville, Jay, FL 93.7 °F 109 °F 78 °F 60% North  at  3.1 mph 0.00 in / hr 240 ft 12:30 PM CDT Rapid Fire
HADS MONROEVILLE , Monroeville, AL 93 °F 106 °F 77 °F 58% SSW  at  5 mph 0.00 in / hr 129 ft 3:30 PM CDT MADIS
Red Level, Red Level, AL 93.0 °F 105 °F 75 °F 56% WSW  at  0.0 mph 0.00 in / hr 345 ft 4:19 PM CDT Normal

Show More Stations Show Fewer Stations